Pagina principale
METAR-TAF:

METAR-TAF

Aeroporti :

Guilin, Cina

latitudine: 25-20N, longitudine: 110-18E, altezza: 166 m

Osservazione

Il bollettino è stato emesso 28 minuti fa, alle 23:00 UTC
Vento 14 kt da sud
Temperature 28°C
Umidità 70%
Pressione 1007 hPa
Visibilità 10 km o più
Poco nuvoloso ad un'altezza di 4300 ft
Nubi sparse ad un'altezza di 6000 ft

METAR: ZGKL 242300Z 17007MPS 9999 FEW043 SCT060 28/22 Q1007 NOSIG

Ora: 07:28 (23:28 UTC)

Previsione

Il bollettino è stato emesso 8 ore e 11 minuti fa, alle 15:17 UTC
Previsione valida dal 24 alle 18 UTC al 25 alle 18 UTC
Vento 4 kt da sud
Visibilità 10 km o più
Poco nuvoloso ad un'altezza di 4000 ft
Evoluzione graduale
dal 25 alle 02 UTC al 25 alle 03 UTC
Vento 14 kt da sud
Evoluzione graduale
dal 25 alle 12 UTC al 25 alle 13 UTC
Vento 4 kt da sud

TAF: ZGKL 241517Z 2418/2518 18002MPS 9999 FEW040 TX35/2507Z TN24/2422Z BECMG 2502/2503 18007MPS BECMG 2512/2513 18002MPS

Osservazioni e previsioni meteorologiche di più di 4000 aeroporti (messaggi METAR e TAF).

Le stazioni disponibili sono rappresentate dai dischi gialli e rossi sulla carta.

Puntare il mouse per vedere il nome della stazione.

Clicca sopra per visualizzare le osservazioni e previsioni meteorologiche.

Per cambiare la mappa : fare clic sui pulsanti verdi con una croce nera per ingrandire, il pulsante verde con un trattino per diminuire, o sulla freccia verde per le mappe adiacenti.


METAR-TAF: